Tonopah Airport
KTPH : now visible

Airfield :











YOU CAN JOIN US ON...

 
LOGIN :

Register | Disclaimer

   EN    FR    IT 

 









Legend :    VFR   Marginal VFR   IFR   Intensive IFR   Very Intensive IFR
Visi :
Ceiling :
>= 8 km
>= 3000ft
5 to 8 km
1000 to 3000 ft
1500m to 5 km
500 to 1000 ft
800 to 1500m
200 to 500 ft
< 800m
< 200 ft
Symbols :   Thunderstorms  Fog  Heavy snow  Heavy precipitations  Wind > 20 kt






- Airport Elevation : 5430 ft


KTPH - Tonopah

CURRENT METAR :
  • 171156Z AUTO 33015KT 10SM CLR 04/M04 A3009 RMK AO2 SLP162 T00441039 10072 20022 55007

EXPIRED METARs :
  • 171056Z AUTO 32012KT 10SM CLR 04/M04 A3009 RMK AO2 SLP159 T00391044
  • 170956Z AUTO 33010KT 10SM CLR 03/M05 A3011 RMK AO2 SLP172 T00281050

TAF KTPH
Valid from the 17 at 12:00 until the 18 at 12:00 UTC


171136Z 1712/1812 33012KT P6SM SCT080 BKN200
FM171900 34015G25KT P6SM SCT250
FM180300 35012KT P6SM SKC



MET'MAP, your aeronautical weather chart ! - Copyright ORBIFLY December 2007 - Disclaimer

ORBIFLY MET'MAP TEAM :

Programming & Development : Alexandra Zaïnal
Concept & original design : Baudouin d'Aumeries
Assistance for programming : Marc-Olivier Méhu
Technical & hardware support : Manuel Goepfert

Contact : metmap@orbifly.com




SOURCES & CREDITS :

   NOAA       Earth
Advisory